Time;durP1;ratioP1;P1;durP2;ratioP2;P2;SDS_P1;SDS_P2;PMS_P1;PMS_P2;Temp;Humidity;BMP_temperature;BMP_pressure;BME280_temperature;BME280_humidity;BME280_pressure;Samples;Min_cycle;Max_cycle;Signal;HPM_P1;HPM_P2
2022/10/31 00:01:39;;;;;;;28.67;23.27;;;;;;;;;;5006443;28;20218;-78
2022/10/31 00:04:06;;;;;;;28.10;23.17;;;;;;;;;;5003715;28;20203;-81
2022/10/31 00:06:32;;;;;;;31.23;21.47;;;;;;;;;;5024291;28;20536;-78
2022/10/31 00:08:59;;;;;;;29.67;22.93;;;;;;;;;;5002309;28;20171;-78
2022/10/31 00:11:25;;;;;;;28.90;24.33;;;;;;;;;;5008788;28;20270;-80
2022/10/31 00:13:51;;;;;;;25.43;20.53;;;;;;;;;;5008844;28;20180;-79
2022/10/31 00:16:21;;;;;;;26.03;22.43;;;;;;;;;;5007591;28;20210;-78
2022/10/31 00:18:55;;;;;;;25.10;22.07;;;;;;;;;;5007884;28;26620;-81
2022/10/31 00:21:21;;;;;;;27.70;22.03;;;;;;;;;;5001914;28;20235;-80
2022/10/31 00:23:47;;;;;;;31.43;24.63;;;;;;;;;;5024853;28;20187;-78
2022/10/31 00:26:13;;;;;;;32.93;26.93;;;;;;;;;;5009089;28;20383;-79
2022/10/31 00:28:39;;;;;;;29.80;22.87;;;;;;;;;;5011557;28;20187;-79
2022/10/31 00:31:06;;;;;;;27.77;23.63;;;;;;;;;;5010743;28;20187;-78
2022/10/31 00:33:33;;;;;;;29.17;24.43;;;;;;;;;;4998189;28;20191;-77
2022/10/31 00:35:59;;;;;;;30.33;22.37;;;;;;;;;;5002761;28;20627;-78
2022/10/31 00:38:25;;;;;;;34.73;25.27;;;;;;;;;;5009876;28;20207;-78
2022/10/31 00:40:51;;;;;;;36.20;27.53;;;;;;;;;;5010881;28;20222;-77
2022/10/31 00:43:17;;;;;;;27.30;22.53;;;;;;;;;;5009047;28;20218;-79
2022/10/31 00:45:44;;;;;;;25.37;20.60;;;;;;;;;;5010805;28;20211;-79
2022/10/31 00:48:10;;;;;;;31.20;23.50;;;;;;;;;;4998697;28;20183;-79
2022/10/31 00:50:37;;;;;;;29.03;24.23;;;;;;;;;;5006387;28;20190;-78
2022/10/31 00:53:03;;;;;;;35.10;26.50;;;;;;;;;;5011990;28;20190;-78
2022/10/31 00:55:29;;;;;;;29.17;23.53;;;;;;;;;;5008847;28;20299;-78
2022/10/31 00:57:55;;;;;;;27.20;23.60;;;;;;;;;;5011218;28;20274;-78
2022/10/31 01:00:21;;;;;;;33.43;25.30;;;;;;;;;;4999687;28;20282;-78
2022/10/31 01:02:47;;;;;;;29.03;23.57;;;;;;;;;;5011441;28;20186;-78
2022/10/31 01:05:13;;;;;;;29.77;23.97;;;;;;;;;;5011871;28;20187;-77
2022/10/31 01:07:40;;;;;;;32.67;25.23;;;;;;;;;;5012344;28;20228;-78
2022/10/31 01:10:07;;;;;;;32.70;25.00;;;;;;;;;;4996163;28;20187;-78
2022/10/31 01:12:37;;;;;;;34.53;25.00;;;;;;;;;;5012628;28;20585;-77
2022/10/31 01:15:03;;;;;;;38.80;27.57;;;;;;;;;;5002266;28;20186;-77
2022/10/31 01:17:29;;;;;;;36.10;27.37;;;;;;;;;;4999123;28;20278;-78
2022/10/31 01:19:55;;;;;;;29.50;24.63;;;;;;;;;;5004345;28;20731;-79
2022/10/31 01:22:21;;;;;;;33.50;27.63;;;;;;;;;;5010764;28;20184;-79
2022/10/31 01:24:47;;;;;;;33.20;26.37;;;;;;;;;;5012595;28;20175;-79
2022/10/31 01:27:13;;;;;;;29.43;25.17;;;;;;;;;;4998907;28;20176;-78
2022/10/31 01:29:39;;;;;;;29.70;25.00;;;;;;;;;;4997709;28;20208;-78
2022/10/31 01:32:05;;;;;;;32.47;27.07;;;;;;;;;;5005066;28;20183;-78
2022/10/31 01:34:31;;;;;;;36.13;27.43;;;;;;;;;;5011213;28;20590;-78
2022/10/31 01:36:57;;;;;;;31.50;24.83;;;;;;;;;;5006409;28;20636;-77
2022/10/31 01:39:23;;;;;;;31.40;25.97;;;;;;;;;;4998198;28;20182;-78
2022/10/31 01:41:51;;;;;;;28.63;24.27;;;;;;;;;;5006418;28;20211;-78
2022/10/31 01:44:17;;;;;;;33.93;26.77;;;;;;;;;;5026691;28;20191;-77
2022/10/31 01:46:51;;;;;;;33.30;27.20;;;;;;;;;;5006831;28;20198;-78
2022/10/31 01:49:37;;;;;;;33.10;26.93;;;;;;;;;;5008345;28;20258;-77
2022/10/31 01:52:06;;;;;;;39.73;32.03;;;;;;;;;;5012080;28;20230;-79
2022/10/31 01:54:37;;;;;;;31.23;26.13;;;;;;;;;;5000037;28;20217;-79
2022/10/31 01:57:05;;;;;;;34.67;28.13;;;;;;;;;;5012995;28;20182;-79
2022/10/31 01:59:33;;;;;;;31.30;26.43;;;;;;;;;;5010685;28;20189;-79
2022/10/31 02:01:59;;;;;;;35.37;27.73;;;;;;;;;;5008787;28;20203;-80
2022/10/31 02:04:25;;;;;;;33.70;28.37;;;;;;;;;;5010694;28;20234;-80
2022/10/31 02:06:55;;;;;;;37.10;29.10;;;;;;;;;;5011556;28;20183;-79
2022/10/31 02:09:23;;;;;;;30.90;26.80;;;;;;;;;;5010385;28;20190;-79
2022/10/31 02:11:51;;;;;;;37.10;28.73;;;;;;;;;;5001766;28;20266;-79
2022/10/31 02:14:17;;;;;;;36.10;30.97;;;;;;;;;;5001708;28;20183;-79
2022/10/31 02:16:43;;;;;;;34.33;28.33;;;;;;;;;;5007380;28;20179;-79
2022/10/31 02:19:14;;;;;;;44.50;35.27;;;;;;;;;;5009974;28;20277;-78
2022/10/31 02:21:48;;;;;;;39.53;33.60;;;;;;;;;;5010916;28;20298;-79
2022/10/31 02:24:14;;;;;;;35.97;29.63;;;;;;;;;;4998529;28;20686;-78
2022/10/31 02:26:59;;;;;;;40.13;32.47;;;;;;;;;;5000607;28;20195;-79
2022/10/31 02:29:27;;;;;;;55.50;41.53;;;;;;;;;;5005880;28;20723;-78
2022/10/31 02:31:57;;;;;;;50.13;38.50;;;;;;;;;;5011734;28;20664;-79
2022/10/31 02:34:32;;;;;;;46.27;36.23;;;;;;;;;;5010231;28;20184;-79
2022/10/31 02:37:12;;;;;;;39.20;32.27;;;;;;;;;;5000215;28;20182;-79
2022/10/31 02:39:38;;;;;;;45.57;35.33;;;;;;;;;;5008803;28;20218;-79
2022/10/31 02:42:08;;;;;;;37.23;30.07;;;;;;;;;;4999396;28;20183;-79
2022/10/31 02:44:37;;;;;;;50.37;39.87;;;;;;;;;;4995796;28;20715;-79
2022/10/31 02:47:09;;;;;;;43.40;35.13;;;;;;;;;;5000435;28;20587;-78
2022/10/31 02:49:35;;;;;;;38.50;31.87;;;;;;;;;;5009511;28;20624;-80
2022/10/31 02:52:01;;;;;;;45.80;37.03;;;;;;;;;;5003930;28;20197;-79
2022/10/31 02:54:28;;;;;;;38.50;31.57;;;;;;;;;;5011126;28;20229;-79
2022/10/31 02:57:05;;;;;;;40.10;33.73;;;;;;;;;;5001058;28;20187;-79
2022/10/31 02:59:32;;;;;;;46.17;36.93;;;;;;;;;;4996401;28;20186;-79
2022/10/31 03:02:09;;;;;;;43.67;35.27;;;;;;;;;;4997795;28;20207;-78
2022/10/31 03:04:44;;;;;;;46.00;38.07;;;;;;;;;;5008531;28;20664;-78
2022/10/31 03:07:13;;;;;;;47.43;38.90;;;;;;;;;;4993867;28;20675;-78
2022/10/31 03:09:47;;;;;;;51.77;41.63;;;;;;;;;;5008478;28;20632;-78
2022/10/31 03:12:31;;;;;;;43.43;35.70;;;;;;;;;;5014333;28;20183;-80
2022/10/31 03:15:00;;;;;;;54.23;41.63;;;;;;;;;;5015063;28;20202;-80
2022/10/31 03:17:35;;;;;;;51.70;42.80;;;;;;;;;;5003267;28;20197;-81
2022/10/31 03:20:03;;;;;;;52.47;43.90;;;;;;;;;;5011585;28;20230;-80
2022/10/31 03:22:31;;;;;;;62.77;48.67;;;;;;;;;;5011229;28;20636;-79
2022/10/31 03:24:58;;;;;;;57.03;47.50;;;;;;;;;;4994649;28;20176;-78
2022/10/31 03:27:25;;;;;;;50.50;44.00;;;;;;;;;;5011158;28;20207;-80
2022/10/31 03:29:54;;;;;;;54.10;44.93;;;;;;;;;;5012176;28;20194;-79
2022/10/31 03:32:33;;;;;;;56.47;46.40;;;;;;;;;;5003453;28;20191;-79
2022/10/31 03:35:01;;;;;;;65.17;51.87;;;;;;;;;;5008609;28;20537;-81
2022/10/31 03:37:28;;;;;;;58.17;47.83;;;;;;;;;;5007910;28;20291;-80
2022/10/31 03:39:55;;;;;;;54.83;47.20;;;;;;;;;;5011016;28;20631;-80
2022/10/31 03:42:23;;;;;;;58.57;49.23;;;;;;;;;;4995235;28;20183;-80
2022/10/31 03:45:02;;;;;;;58.20;47.83;;;;;;;;;;5000523;28;20695;-81
2022/10/31 03:47:29;;;;;;;61.03;48.10;;;;;;;;;;4996804;28;20190;-80
2022/10/31 03:49:55;;;;;;;61.97;51.43;;;;;;;;;;4998115;28;20237;-79
2022/10/31 03:52:29;;;;;;;61.20;49.83;;;;;;;;;;5002607;28;20198;-79
2022/10/31 03:55:13;;;;;;;62.60;50.77;;;;;;;;;;5000341;28;20176;-82
2022/10/31 03:57:41;;;;;;;65.97;52.87;;;;;;;;;;4996675;28;20242;-81
2022/10/31 04:00:12;;;;;;;58.10;49.67;;;;;;;;;;5000671;28;20227;-80
2022/10/31 04:02:41;;;;;;;58.50;50.67;;;;;;;;;;4999435;28;20695;-79
2022/10/31 04:05:07;;;;;;;56.07;47.80;;;;;;;;;;5004537;28;20187;-82
2022/10/31 04:07:36;;;;;;;57.80;49.23;;;;;;;;;;5000093;28;20278;-81
2022/10/31 04:10:05;;;;;;;59.67;49.83;;;;;;;;;;5014270;28;20179;-81
2022/10/31 04:12:31;;;;;;;53.03;44.93;;;;;;;;;;5014939;28;20182;-80
2022/10/31 04:14:57;;;;;;;51.83;46.23;;;;;;;;;;5013616;28;20195;-80
2022/10/31 04:17:24;;;;;;;49.30;43.87;;;;;;;;;;5005980;28;20640;-81
2022/10/31 04:19:50;;;;;;;58.83;48.83;;;;;;;;;;4999197;28;20231;-80
2022/10/31 04:22:16;;;;;;;55.40;46.50;;;;;;;;;;5012500;28;20176;-80
2022/10/31 04:24:42;;;;;;;45.20;38.57;;;;;;;;;;4998438;28;20629;-80
2022/10/31 04:27:08;;;;;;;55.93;44.33;;;;;;;;;;5009341;28;20183;-79
2022/10/31 04:29:34;;;;;;;50.43;42.23;;;;;;;;;;5013186;28;20179;-81
2022/10/31 04:32:00;;;;;;;57.23;44.60;;;;;;;;;;5011710;28;20215;-80
2022/10/31 04:34:26;;;;;;;44.50;39.67;;;;;;;;;;5000383;28;20652;-80
2022/10/31 04:36:52;;;;;;;47.63;40.90;;;;;;;;;;5009677;28;20174;-79
2022/10/31 04:39:18;;;;;;;46.13;38.80;;;;;;;;;;4998147;28;20178;-79
2022/10/31 04:41:44;;;;;;;50.90;41.87;;;;;;;;;;5002093;28;20298;-79
2022/10/31 04:44:10;;;;;;;48.60;40.37;;;;;;;;;;5028286;28;20614;-79
2022/10/31 04:46:36;;;;;;;47.90;41.57;;;;;;;;;;5011871;28;20266;-79
2022/10/31 04:49:02;;;;;;;54.87;45.03;;;;;;;;;;5011909;28;20258;-79
2022/10/31 04:51:28;;;;;;;54.03;43.40;;;;;;;;;;5002346;28;20645;-79
2022/10/31 04:53:54;;;;;;;61.40;46.77;;;;;;;;;;5013460;28;20205;-79
2022/10/31 04:56:20;;;;;;;52.53;43.83;;;;;;;;;;4994372;28;20194;-79
2022/10/31 04:58:46;;;;;;;44.63;37.47;;;;;;;;;;5015004;28;20183;-80
2022/10/31 05:01:13;;;;;;;46.03;37.80;;;;;;;;;;5018633;28;20221;-79
2022/10/31 05:03:39;;;;;;;45.47;37.70;;;;;;;;;;5018217;28;20550;-79
2022/10/31 05:06:05;;;;;;;52.73;41.97;;;;;;;;;;5024354;28;20201;-79
2022/10/31 05:08:31;;;;;;;52.87;43.43;;;;;;;;;;5023808;28;20195;-78
2022/10/31 05:11:01;;;;;;;66.63;49.90;;;;;;;;;;5015093;28;20241;-79
2022/10/31 05:13:27;;;;;;;55.73;45.50;;;;;;;;;;5003710;28;20250;-79
2022/10/31 05:15:53;;;;;;;53.73;40.97;;;;;;;;;;5001192;28;20176;-78
2022/10/31 05:18:19;;;;;;;47.97;41.53;;;;;;;;;;4999136;28;20574;-78
2022/10/31 05:20:45;;;;;;;57.77;47.87;;;;;;;;;;5006961;28;20235;-78
2022/10/31 05:23:11;;;;;;;50.33;41.60;;;;;;;;;;5009273;28;20210;-79
2022/10/31 05:25:37;;;;;;;56.73;46.37;;;;;;;;;;4994896;28;20569;-81
2022/10/31 05:28:04;;;;;;;63.87;49.93;;;;;;;;;;5014065;28;20203;-79
2022/10/31 05:30:31;;;;;;;58.10;47.80;;;;;;;;;;5014457;28;20184;-83
2022/10/31 05:32:57;;;;;;;55.97;46.63;;;;;;;;;;5003883;28;20180;-79
2022/10/31 05:35:33;;;;;;;53.37;43.80;;;;;;;;;;5002220;28;20649;-79
2022/10/31 05:37:59;;;;;;;68.60;50.40;;;;;;;;;;5001138;28;20178;-81
2022/10/31 05:40:26;;;;;;;59.73;46.53;;;;;;;;;;5011670;28;20219;-80
2022/10/31 05:42:53;;;;;;;59.00;46.80;;;;;;;;;;4993852;28;20176;-79
2022/10/31 05:45:20;;;;;;;60.23;48.10;;;;;;;;;;4995330;28;20199;-80
2022/10/31 05:47:53;;;;;;;52.07;41.97;;;;;;;;;;5001542;28;20666;-78
2022/10/31 05:50:19;;;;;;;52.50;45.33;;;;;;;;;;4997513;28;20191;-80
2022/10/31 05:52:45;;;;;;;56.87;45.70;;;;;;;;;;5001072;28;20183;-79
2022/10/31 05:55:11;;;;;;;54.30;43.33;;;;;;;;;;5011243;28;20179;-80
2022/10/31 05:57:37;;;;;;;57.63;45.63;;;;;;;;;;4999289;28;20184;-78
2022/10/31 06:00:03;;;;;;;52.83;41.47;;;;;;;;;;5001079;28;20192;-79
2022/10/31 06:02:34;;;;;;;48.80;40.90;;;;;;;;;;5001766;28;20198;-81
2022/10/31 06:05:00;;;;;;;47.57;40.83;;;;;;;;;;5000644;28;20183;-76
2022/10/31 06:07:26;;;;;;;50.73;41.83;;;;;;;;;;4996641;28;20257;-78
2022/10/31 06:09:52;;;;;;;53.10;42.47;;;;;;;;;;5012558;28;20175;-78
2022/10/31 06:12:18;;;;;;;45.87;38.27;;;;;;;;;;4995968;28;20186;-78
2022/10/31 06:14:44;;;;;;;52.67;42.07;;;;;;;;;;5005951;28;20233;-79
2022/10/31 06:17:10;;;;;;;48.17;40.73;;;;;;;;;;5008241;28;20183;-80
2022/10/31 06:19:36;;;;;;;53.87;42.20;;;;;;;;;;4992567;28;20313;-79
2022/10/31 06:22:02;;;;;;;53.03;41.97;;;;;;;;;;5010911;28;20214;-80
2022/10/31 06:24:28;;;;;;;55.23;42.07;;;;;;;;;;5008245;28;20206;-79
2022/10/31 06:26:54;;;;;;;51.60;42.10;;;;;;;;;;5009421;28;20651;-79
2022/10/31 06:29:20;;;;;;;58.70;41.30;;;;;;;;;;5012277;28;20187;-81
2022/10/31 06:31:46;;;;;;;53.73;41.40;;;;;;;;;;5006745;28;20184;-80
2022/10/31 06:34:12;;;;;;;46.73;35.77;;;;;;;;;;5011337;28;20690;-78
2022/10/31 06:36:38;;;;;;;36.57;30.37;;;;;;;;;;4998949;28;20179;-81
2022/10/31 06:39:04;;;;;;;56.63;38.30;;;;;;;;;;5006660;28;20175;-81
2022/10/31 06:41:30;;;;;;;46.77;34.40;;;;;;;;;;5027069;28;20579;-80
2022/10/31 06:43:56;;;;;;;60.00;34.07;;;;;;;;;;5010256;28;20738;-80
2022/10/31 06:46:22;;;;;;;62.47;37.83;;;;;;;;;;5011643;28;20183;-82
2022/10/31 06:48:48;;;;;;;75.73;33.10;;;;;;;;;;5012605;28;20186;-81
2022/10/31 06:51:14;;;;;;;52.90;30.87;;;;;;;;;;5010151;28;20206;-80
2022/10/31 06:53:40;;;;;;;54.97;31.87;;;;;;;;;;5006829;28;20218;-81
2022/10/31 06:56:06;;;;;;;44.80;28.30;;;;;;;;;;5007588;28;20190;-80
2022/10/31 06:58:32;;;;;;;89.63;34.47;;;;;;;;;;5019602;28;20183;-78
2022/10/31 07:01:00;;;;;;;55.70;28.83;;;;;;;;;;5011007;28;20548;-78
2022/10/31 07:03:26;;;;;;;47.77;24.80;;;;;;;;;;5008898;28;20190;-79
2022/10/31 07:05:52;;;;;;;44.03;24.50;;;;;;;;;;5023005;28;20186;-79
2022/10/31 07:08:18;;;;;;;30.87;21.10;;;;;;;;;;5025894;28;20187;-79
2022/10/31 07:10:51;;;;;;;29.97;22.77;;;;;;;;;;5024962;28;20639;-79
2022/10/31 07:13:17;;;;;;;42.93;28.20;;;;;;;;;;5011504;28;20167;-79
2022/10/31 07:15:43;;;;;;;40.17;25.70;;;;;;;;;;5010287;28;20175;-78
2022/10/31 07:18:10;;;;;;;51.80;31.30;;;;;;;;;;5008262;28;20660;-79
2022/10/31 07:20:36;;;;;;;33.73;25.87;;;;;;;;;;5005341;28;20665;-79
2022/10/31 07:23:02;;;;;;;36.33;28.47;;;;;;;;;;4991478;28;20637;-80
2022/10/31 07:25:28;;;;;;;39.53;28.47;;;;;;;;;;5014825;28;20193;-82
2022/10/31 07:27:54;;;;;;;33.57;25.83;;;;;;;;;;5008830;28;20261;-80
2022/10/31 07:30:20;;;;;;;32.50;25.23;;;;;;;;;;5026131;28;20290;-79
2022/10/31 07:32:47;;;;;;;33.77;25.47;;;;;;;;;;5024609;28;20556;-79
2022/10/31 07:35:15;;;;;;;36.90;27.17;;;;;;;;;;5025069;28;20183;-79
2022/10/31 07:37:41;;;;;;;30.33;24.27;;;;;;;;;;5023481;28;20194;-80
2022/10/31 07:40:08;;;;;;;29.00;23.80;;;;;;;;;;5007720;28;20573;-79
2022/10/31 07:42:37;;;;;;;30.87;24.53;;;;;;;;;;5013209;28;20183;-82
2022/10/31 07:45:04;;;;;;;30.70;24.77;;;;;;;;;;5032574;28;20304;-79
2022/10/31 07:47:30;;;;;;;29.83;25.10;;;;;;;;;;5026195;28;20198;-80
2022/10/31 07:49:56;;;;;;;30.37;23.43;;;;;;;;;;5009205;28;20549;-80
2022/10/31 07:52:22;;;;;;;31.83;24.97;;;;;;;;;;5012695;28;20210;-80
2022/10/31 07:54:48;;;;;;;23.60;18.57;;;;;;;;;;5012278;28;20550;-79
2022/10/31 07:57:14;;;;;;;22.93;19.30;;;;;;;;;;5014388;28;20187;-79
2022/10/31 07:59:40;;;;;;;22.13;19.50;;;;;;;;;;5028298;28;20241;-79
2022/10/31 08:02:06;;;;;;;21.63;19.13;;;;;;;;;;5018804;28;20247;-82
2022/10/31 08:04:32;;;;;;;21.03;18.77;;;;;;;;;;5037326;28;20188;-83
2022/10/31 08:06:58;;;;;;;20.33;17.87;;;;;;;;;;5025618;28;20191;-79
2022/10/31 08:09:24;;;;;;;22.60;17.50;;;;;;;;;;5034079;28;20179;-81
2022/10/31 08:11:50;;;;;;;20.80;17.87;;;;;;;;;;5033754;28;20167;-80
2022/10/31 08:14:16;;;;;;;20.27;17.50;;;;;;;;;;5037751;28;20185;-80
2022/10/31 08:16:42;;;;;;;21.10;17.13;;;;;;;;;;5035682;28;20247;-80
2022/10/31 08:19:08;;;;;;;20.50;17.80;;;;;;;;;;5038025;28;20179;-80
2022/10/31 08:21:34;;;;;;;19.63;17.53;;;;;;;;;;5049995;28;20233;-80
2022/10/31 08:24:00;;;;;;;20.37;16.43;;;;;;;;;;5051685;28;20168;-79
2022/10/31 08:26:26;;;;;;;19.40;17.07;;;;;;;;;;5035474;28;20187;-80
2022/10/31 08:28:54;;;;;;;20.80;18.57;;;;;;;;;;5051994;28;20167;-80
2022/10/31 08:31:20;;;;;;;22.33;17.90;;;;;;;;;;5023021;28;20195;-81
2022/10/31 08:33:46;;;;;;;24.90;18.57;;;;;;;;;;5008628;28;20651;-80
2022/10/31 08:36:12;;;;;;;20.70;18.33;;;;;;;;;;5024442;28;20179;-80
2022/10/31 08:38:38;;;;;;;24.43;17.77;;;;;;;;;;5026106;28;20184;-80
2022/10/31 08:41:04;;;;;;;24.30;20.03;;;;;;;;;;5027302;28;20214;-80
2022/10/31 08:43:30;;;;;;;24.50;18.90;;;;;;;;;;5027075;28;20210;-80
2022/10/31 08:45:56;;;;;;;25.10;19.43;;;;;;;;;;4995495;28;20179;-80
2022/10/31 08:48:22;;;;;;;22.90;17.97;;;;;;;;;;4996418;28;20238;-80
2022/10/31 08:50:48;;;;;;;20.63;18.43;;;;;;;;;;4998632;28;20572;-80
2022/10/31 08:53:16;;;;;;;21.43;18.67;;;;;;;;;;5000444;28;20180;-80
2022/10/31 08:55:42;;;;;;;24.40;20.03;;;;;;;;;;5009749;28;20190;-80
2022/10/31 08:58:12;;;;;;;26.63;20.70;;;;;;;;;;4997223;28;20186;-80
2022/10/31 09:00:38;;;;;;;28.20;22.70;;;;;;;;;;5025123;28;20216;-81
2022/10/31 09:03:06;;;;;;;24.03;21.03;;;;;;;;;;5021182;28;20184;-80
2022/10/31 09:05:32;;;;;;;23.40;20.90;;;;;;;;;;5004144;28;20198;-80
2022/10/31 09:07:59;;;;;;;23.20;20.27;;;;;;;;;;5010976;28;20187;-80
2022/10/31 09:10:26;;;;;;;25.40;20.53;;;;;;;;;;5011596;28;20237;-81
2022/10/31 09:13:03;;;;;;;24.90;21.70;;;;;;;;;;5010394;28;20640;-80
2022/10/31 09:15:30;;;;;;;27.43;22.17;;;;;;;;;;4999665;28;20184;-80
2022/10/31 09:17:56;;;;;;;33.50;23.50;;;;;;;;;;5004271;28;20539;-80
2022/10/31 09:20:22;;;;;;;25.47;22.00;;;;;;;;;;5009803;28;20258;-80
2022/10/31 09:22:55;;;;;;;28.27;22.37;;;;;;;;;;5004076;28;20224;-80
2022/10/31 09:25:21;;;;;;;26.50;22.23;;;;;;;;;;5007694;28;20194;-80
2022/10/31 09:27:47;;;;;;;27.20;23.13;;;;;;;;;;5011809;28;20544;-80
2022/10/31 09:30:13;;;;;;;31.03;25.33;;;;;;;;;;5011383;28;20191;-80
2022/10/31 09:32:39;;;;;;;28.77;24.37;;;;;;;;;;5010944;28;20183;-81
2022/10/31 09:35:05;;;;;;;31.70;25.40;;;;;;;;;;5008553;28;20578;-80
2022/10/31 09:37:31;;;;;;;29.47;25.43;;;;;;;;;;4993832;28;20190;-80
2022/10/31 09:39:57;;;;;;;29.87;25.53;;;;;;;;;;5000994;28;20179;-81
2022/10/31 09:42:26;;;;;;;27.83;24.73;;;;;;;;;;5010953;28;20265;-80
2022/10/31 09:45:02;;;;;;;28.37;24.90;;;;;;;;;;5009915;28;20205;-81
2022/10/31 09:47:43;;;;;;;33.53;25.40;;;;;;;;;;5009936;28;20182;-81
2022/10/31 09:50:33;;;;;;;28.03;24.20;;;;;;;;;;5008269;28;20182;-80
2022/10/31 09:53:01;;;;;;;37.47;26.83;;;;;;;;;;4999290;28;20225;-81
2022/10/31 09:55:42;;;;;;;31.87;25.73;;;;;;;;;;5004058;28;20179;-81
2022/10/31 09:58:16;;;;;;;38.90;29.00;;;;;;;;;;5008836;28;20181;-81
2022/10/31 10:00:43;;;;;;;34.40;27.47;;;;;;;;;;4993767;28;20222;-81
2022/10/31 10:03:28;;;;;;;36.30;28.63;;;;;;;;;;4996975;28;20191;-81
2022/10/31 10:06:15;;;;;;;34.17;27.40;;;;;;;;;;5005131;28;20179;-80
2022/10/31 10:08:41;;;;;;;35.60;28.27;;;;;;;;;;5006972;28;20455;-81
2022/10/31 10:11:26;;;;;;;38.77;30.20;;;;;;;;;;5006566;28;20196;-81
2022/10/31 10:14:07;;;;;;;40.27;31.13;;;;;;;;;;4992599;28;20215;-81
2022/10/31 10:16:42;;;;;;;36.47;29.83;;;;;;;;;;5007892;28;20178;-81
2022/10/31 10:19:19;;;;;;;36.80;28.57;;;;;;;;;;4994779;28;20176;-81
2022/10/31 10:22:00;;;;;;;32.60;28.40;;;;;;;;;;5002343;28;20230;-81
2022/10/31 10:24:45;;;;;;;36.80;29.63;;;;;;;;;;5021985;28;20194;-81
2022/10/31 10:27:11;;;;;;;36.90;29.90;;;;;;;;;;5000986;28;20248;-81
2022/10/31 10:29:37;;;;;;;34.67;27.60;;;;;;;;;;5006621;28;20270;-80
2022/10/31 10:32:09;;;;;;;38.87;29.83;;;;;;;;;;4995146;28;20608;-81
2022/10/31 10:34:38;;;;;;;36.90;30.27;;;;;;;;;;5008723;28;20250;-80
2022/10/31 10:37:19;;;;;;;32.30;28.13;;;;;;;;;;4994918;28;20594;-80
2022/10/31 10:39:48;;;;;;;33.77;27.67;;;;;;;;;;4997313;28;20194;-80
2022/10/31 10:47:50;;;;;;;31.03;26.80;;;;;;;;;;4999698;28;20186;-81
2022/10/31 10:50:16;;;;;;;31.83;24.90;;;;;;;;;;5008410;28;20199;-80
2022/10/31 10:53:03;;;;;;;32.10;26.17;;;;;;;;;;5007612;28;20266;-81
2022/10/31 10:55:44;;;;;;;32.73;26.03;;;;;;;;;;5005020;28;20179;-80
2022/10/31 10:58:10;;;;;;;32.03;25.70;;;;;;;;;;5007413;28;20215;-80
2022/10/31 11:00:39;;;;;;;29.10;25.60;;;;;;;;;;4996333;28;20222;-81
2022/10/31 11:03:05;;;;;;;29.43;25.60;;;;;;;;;;4997735;28;20188;-81
2022/10/31 11:05:39;;;;;;;31.93;25.77;;;;;;;;;;4994146;28;20649;-81
2022/10/31 11:08:06;;;;;;;30.10;24.70;;;;;;;;;;4993122;28;20650;-80
2022/10/31 11:10:33;;;;;;;30.43;25.17;;;;;;;;;;5009246;28;20662;-80
2022/10/31 11:13:04;;;;;;;30.67;23.57;;;;;;;;;;4996649;28;20172;-80
2022/10/31 11:15:32;;;;;;;29.07;23.70;;;;;;;;;;5014616;28;20627;-80
2022/10/31 11:17:58;;;;;;;29.43;24.13;;;;;;;;;;5015166;28;20586;-80
2022/10/31 11:20:34;;;;;;;31.23;24.43;;;;;;;;;;4994024;28;20227;-80
2022/10/31 11:23:03;;;;;;;30.00;25.37;;;;;;;;;;5004017;28;20257;-80
2022/10/31 11:25:29;;;;;;;34.03;27.00;;;;;;;;;;4993440;28;20183;-81
2022/10/31 11:28:06;;;;;;;34.27;26.23;;;;;;;;;;5001759;28;20542;-81
2022/10/31 11:30:42;;;;;;;28.47;24.53;;;;;;;;;;5000958;28;20269;-80
2022/10/31 11:33:16;;;;;;;32.47;26.00;;;;;;;;;;5003250;28;20728;-81
2022/10/31 11:35:43;;;;;;;33.57;27.30;;;;;;;;;;4998480;28;20656;-80
2022/10/31 11:38:14;;;;;;;37.13;28.37;;;;;;;;;;5009731;28;20233;-81
2022/10/31 11:40:51;;;;;;;35.37;28.83;;;;;;;;;;5007483;28;20202;-80
2022/10/31 11:43:18;;;;;;;35.77;29.10;;;;;;;;;;4993870;28;20183;-81
2022/10/31 11:45:44;;;;;;;41.60;33.10;;;;;;;;;;4994019;28;20194;-81
2022/10/31 11:48:21;;;;;;;41.20;33.93;;;;;;;;;;4996620;28;20192;-79
2022/10/31 11:50:52;;;;;;;48.93;35.97;;;;;;;;;;4991920;28;20242;-80
2022/10/31 11:53:26;;;;;;;46.80;35.20;;;;;;;;;;4993484;28;20183;-80
2022/10/31 11:56:07;;;;;;;50.40;39.23;;;;;;;;;;4992625;28;20211;-80
2022/10/31 11:58:33;;;;;;;49.80;38.40;;;;;;;;;;4989142;28;20270;-81
2022/10/31 12:00:59;;;;;;;48.50;36.20;;;;;;;;;;4997570;28;20545;-81
2022/10/31 12:03:28;;;;;;;52.17;38.07;;;;;;;;;;5002201;28;20199;-81
2022/10/31 12:05:54;;;;;;;52.77;41.03;;;;;;;;;;5003984;28;20191;-80
2022/10/31 12:08:20;;;;;;;56.17;41.20;;;;;;;;;;5004466;28;20245;-80
2022/10/31 12:10:57;;;;;;;53.87;42.43;;;;;;;;;;5007246;28;20604;-81
2022/10/31 12:13:23;;;;;;;58.90;43.17;;;;;;;;;;4994639;28;20226;-80
2022/10/31 12:15:56;;;;;;;57.27;42.00;;;;;;;;;;5000838;28;20211;-81
2022/10/31 12:18:34;;;;;;;56.10;41.30;;;;;;;;;;5016345;28;20590;-81
2022/10/31 12:21:06;;;;;;;59.53;44.63;;;;;;;;;;4991579;28;20560;-81
2022/10/31 12:23:45;;;;;;;61.63;43.57;;;;;;;;;;5004884;28;20667;-81
2022/10/31 12:26:27;;;;;;;56.37;43.27;;;;;;;;;;5009572;28;20171;-81
2022/10/31 12:29:20;;;;;;;61.27;41.53;;;;;;;;;;5008168;28;20179;-80
2022/10/31 12:31:55;;;;;;;62.93;41.10;;;;;;;;;;4951332;28;20662;-80
2022/10/31 12:34:24;;;;;;;61.10;41.40;;;;;;;;;;4955726;28;20188;-80
2022/10/31 12:37:01;;;;;;;62.03;41.27;;;;;;;;;;4950104;28;20208;-81
2022/10/31 12:39:53;;;;;;;65.10;41.47;;;;;;;;;;4966246;28;20192;-81
2022/10/31 12:42:19;;;;;;;60.03;41.00;;;;;;;;;;4954672;28;20232;-80
2022/10/31 12:45:06;;;;;;;63.17;43.30;;;;;;;;;;4954259;28;20528;-80
2022/10/31 12:47:44;;;;;;;59.27;41.17;;;;;;;;;;4954702;28;20208;-81
2022/10/31 12:50:28;;;;;;;58.90;41.73;;;;;;;;;;4957584;28;20694;-81
2022/10/31 12:53:06;;;;;;;58.43;42.57;;;;;;;;;;4952559;28;20229;-80
2022/10/31 12:55:32;;;;;;;62.17;42.60;;;;;;;;;;4955549;28;20192;-80
2022/10/31 12:58:01;;;;;;;62.07;42.07;;;;;;;;;;4953345;28;20180;-80
2022/10/31 13:00:27;;;;;;;66.37;44.23;;;;;;;;;;4970295;28;20220;-80
2022/10/31 13:03:12;;;;;;;63.30;45.10;;;;;;;;;;4951213;28;20267;-80
2022/10/31 13:05:41;;;;;;;63.40;44.53;;;;;;;;;;4954055;28;20266;-81
2022/10/31 13:08:27;;;;;;;63.23;44.37;;;;;;;;;;4982799;28;20199;-80
2022/10/31 13:11:00;;;;;;;69.40;45.27;;;;;;;;;;5006019;28;20241;-81
2022/10/31 13:13:52;;;;;;;72.70;47.93;;;;;;;;;;5012163;28;20266;-81
2022/10/31 13:16:23;;;;;;;71.90;47.77;;;;;;;;;;4972105;28;20207;-81
2022/10/31 13:18:49;;;;;;;70.57;47.27;;;;;;;;;;4951074;28;20250;-81
2022/10/31 13:21:26;;;;;;;68.30;46.70;;;;;;;;;;4961416;28;20224;-81
2022/10/31 13:23:52;;;;;;;71.47;49.53;;;;;;;;;;4961850;28;20183;-80
2022/10/31 13:26:27;;;;;;;75.53;49.30;;;;;;;;;;4964191;28;20184;-80
2022/10/31 13:29:01;;;;;;;74.37;48.60;;;;;;;;;;4974120;28;20300;-80
2022/10/31 13:31:27;;;;;;;72.40;48.17;;;;;;;;;;4972785;28;20267;-81
2022/10/31 13:33:55;;;;;;;79.87;51.77;;;;;;;;;;4961684;28;20195;-80
2022/10/31 13:36:36;;;;;;;77.00;49.07;;;;;;;;;;4966513;28;20202;-80
2022/10/31 13:39:14;;;;;;;79.40;49.57;;;;;;;;;;4964718;28;20215;-80
2022/10/31 13:41:51;;;;;;;69.30;46.53;;;;;;;;;;4967183;28;20220;-80
2022/10/31 13:44:27;;;;;;;76.43;48.87;;;;;;;;;;4967992;28;20191;-81
2022/10/31 13:46:55;;;;;;;80.73;48.47;;;;;;;;;;4976111;28;20188;-80
2022/10/31 13:49:30;;;;;;;86.33;51.83;;;;;;;;;;4985215;28;20246;-80
2022/10/31 13:52:12;;;;;;;86.70;51.37;;;;;;;;;;4964177;28;20188;-80
2022/10/31 13:54:45;;;;;;;87.10;51.73;;;;;;;;;;4998794;28;20180;-80
2022/10/31 13:57:31;;;;;;;87.00;51.00;;;;;;;;;;5000225;28;20850;-80
2022/10/31 14:00:17;;;;;;;87.47;53.23;;;;;;;;;;4991084;28;20183;-80
2022/10/31 14:02:46;;;;;;;90.03;52.10;;;;;;;;;;4981099;28;20196;-80
2022/10/31 14:05:38;;;;;;;88.00;51.47;;;;;;;;;;4993903;28;20625;-81
2022/10/31 14:08:06;;;;;;;88.90;50.80;;;;;;;;;;4975119;28;20202;-80
2022/10/31 14:10:39;;;;;;;96.10;54.77;;;;;;;;;;4980981;28;20199;-80
2022/10/31 14:13:14;;;;;;;90.20;52.77;;;;;;;;;;4998915;28;20193;-80
2022/10/31 14:15:43;;;;;;;107.03;54.50;;;;;;;;;;4997066;28;20692;-80
2022/10/31 14:18:22;;;;;;;101.00;54.60;;;;;;;;;;5004764;28;20270;-80
2022/10/31 14:20:48;;;;;;;107.60;55.37;;;;;;;;;;4989939;28;20226;-80
2022/10/31 14:23:33;;;;;;;112.53;57.33;;;;;;;;;;5024191;28;20219;-80
2022/10/31 14:26:08;;;;;;;101.13;54.73;;;;;;;;;;4989918;28;20262;-80
2022/10/31 14:28:35;;;;;;;125.50;65.27;;;;;;;;;;5001308;28;20605;-81
2022/10/31 14:31:01;;;;;;;121.03;61.33;;;;;;;;;;5013536;28;20218;-80
2022/10/31 14:33:29;;;;;;;131.73;61.17;;;;;;;;;;5017417;28;20179;-80
2022/10/31 14:36:04;;;;;;;134.40;62.70;;;;;;;;;;4997611;28;20720;-80